createdAt,value
2023-03-22T00:01:11.057Z,3.95
2023-03-22T00:03:38.478Z,4.40
2023-03-22T00:06:05.710Z,3.67
2023-03-22T00:08:32.838Z,3.55
2023-03-22T00:11:00.244Z,3.58
2023-03-22T00:13:27.538Z,3.63
2023-03-22T00:15:55.947Z,3.10
2023-03-22T00:18:23.064Z,3.45
2023-03-22T00:20:51.311Z,3.30
2023-03-22T00:23:18.650Z,3.75
2023-03-22T00:25:46.013Z,3.88
2023-03-22T00:28:13.435Z,3.75
2023-03-22T00:30:40.856Z,3.55
2023-03-22T00:33:08.129Z,3.15
2023-03-22T00:35:35.213Z,3.78
2023-03-22T00:38:14.259Z,3.85
2023-03-22T00:40:42.009Z,3.60
2023-03-22T00:43:09.228Z,3.58
2023-03-22T00:45:37.974Z,2.83
2023-03-22T00:48:05.155Z,4.07
2023-03-22T00:50:32.450Z,3.35
2023-03-22T00:52:59.501Z,4.07
2023-03-22T00:55:26.664Z,3.60
2023-03-22T00:57:53.724Z,3.55
2023-03-22T01:00:20.815Z,3.25
2023-03-22T01:02:47.869Z,3.08
2023-03-22T01:05:15.892Z,3.25
2023-03-22T01:07:43.641Z,2.55
2023-03-22T01:10:11.562Z,2.72
2023-03-22T01:12:38.906Z,2.70
2023-03-22T01:15:06.932Z,2.60
2023-03-22T01:17:34.071Z,2.63
2023-03-22T01:20:01.161Z,3.03
2023-03-22T01:22:28.300Z,2.67
2023-03-22T01:24:55.542Z,2.33
2023-03-22T01:27:22.648Z,2.58
2023-03-22T01:29:49.707Z,2.45
2023-03-22T01:32:16.777Z,2.10
2023-03-22T01:34:43.821Z,1.92
2023-03-22T01:37:10.915Z,2.33
2023-03-22T01:39:37.993Z,2.50
2023-03-22T01:42:05.595Z,2.50
2023-03-22T01:44:32.851Z,2.65
2023-03-22T01:46:59.952Z,1.88
2023-03-22T01:49:32.329Z,1.65
2023-03-22T01:52:17.685Z,2.05
2023-03-22T01:54:46.984Z,1.98
2023-03-22T01:57:14.130Z,1.60
2023-03-22T01:59:42.973Z,1.67
2023-03-22T02:02:10.840Z,1.70
2023-03-22T02:04:39.354Z,1.20
2023-03-22T02:07:09.969Z,1.52
2023-03-22T02:09:42.258Z,1.75
2023-03-22T02:12:27.816Z,1.73
2023-03-22T02:15:09.122Z,1.83
2023-03-22T02:18:01.666Z,1.40
2023-03-22T02:20:41.844Z,1.25
2023-03-22T02:23:08.961Z,1.27
2023-03-22T02:25:38.874Z,1.48
2023-03-22T02:28:19.284Z,1.40
2023-03-22T02:31:05.416Z,1.50
2023-03-22T02:33:32.493Z,1.55
2023-03-22T02:36:16.771Z,1.20
2023-03-22T02:38:47.506Z,1.55
2023-03-22T02:41:16.055Z,1.15
2023-03-22T02:44:01.924Z,1.45
2023-03-22T02:46:52.591Z,1.67
2023-03-22T02:49:23.180Z,1.00
2023-03-22T02:51:57.915Z,1.25
2023-03-22T02:54:38.880Z,1.48
2023-03-22T02:57:09.164Z,1.38
2023-03-22T02:59:38.614Z,1.58
2023-03-22T03:02:06.711Z,0.93
2023-03-22T03:04:35.894Z,1.08
2023-03-22T03:07:04.822Z,1.08
2023-03-22T03:09:32.540Z,1.27
2023-03-22T03:11:59.613Z,1.70
2023-03-22T03:14:28.896Z,1.00
2023-03-22T03:17:16.188Z,1.10
2023-03-22T03:19:56.488Z,1.90
2023-03-22T03:22:35.650Z,1.40
2023-03-22T03:25:07.010Z,1.45
2023-03-22T03:27:39.279Z,1.25
2023-03-22T03:30:11.526Z,1.20
2023-03-22T03:32:42.031Z,2.30
2023-03-22T03:35:22.214Z,1.05
2023-03-22T03:37:54.327Z,1.52
2023-03-22T03:42:50.212Z,1.88
2023-03-22T03:45:17.786Z,1.58
2023-03-22T03:47:55.376Z,2.00
2023-03-22T03:50:22.564Z,1.67
2023-03-22T03:52:49.680Z,1.85
2023-03-22T03:55:16.864Z,2.33
2023-03-22T03:57:43.889Z,2.65
2023-03-22T04:00:11.216Z,2.55
2023-03-22T04:02:38.281Z,3.40
2023-03-22T04:05:07.300Z,2.65
2023-03-22T04:07:34.593Z,3.10
2023-03-22T04:10:01.610Z,3.50
2023-03-22T04:12:28.684Z,3.35
2023-03-22T04:14:56.047Z,3.33
2023-03-22T04:17:23.628Z,3.55
2023-03-22T04:19:53.445Z,4.70
2023-03-22T04:22:20.508Z,4.07
2023-03-22T04:24:50.103Z,4.15
2023-03-22T04:27:22.273Z,4.10
2023-03-22T04:29:50.920Z,4.55
2023-03-22T04:32:18.872Z,4.28
2023-03-22T04:34:46.506Z,4.10
2023-03-22T04:37:14.499Z,4.15
2023-03-22T04:39:41.852Z,4.93
2023-03-22T04:42:09.062Z,5.28
2023-03-22T04:44:36.132Z,4.95
2023-03-22T04:47:03.211Z,4.80
2023-03-22T04:49:31.386Z,4.28
2023-03-22T04:51:58.514Z,4.80
2023-03-22T04:54:25.819Z,5.03
2023-03-22T04:56:53.159Z,5.78
2023-03-22T04:59:20.726Z,4.60
2023-03-22T05:01:48.381Z,4.97
2023-03-22T05:04:16.365Z,5.13
2023-03-22T05:06:43.471Z,5.32
2023-03-22T05:09:10.928Z,5.40
2023-03-22T05:11:38.456Z,4.93
2023-03-22T05:14:05.740Z,6.07
2023-03-22T05:16:32.867Z,5.63
2023-03-22T05:19:02.325Z,5.90
2023-03-22T05:21:36.575Z,5.53
2023-03-22T05:24:03.656Z,5.80
2023-03-22T05:26:30.764Z,5.45
2023-03-22T05:28:57.955Z,4.95
2023-03-22T05:31:25.053Z,4.60
2023-03-22T05:33:52.758Z,4.97
2023-03-22T05:36:21.385Z,5.60
2023-03-22T05:38:48.861Z,5.55
2023-03-22T05:41:16.164Z,5.68
2023-03-22T05:43:43.175Z,5.65
2023-03-22T05:46:11.362Z,4.97
2023-03-22T05:48:39.311Z,6.07
2023-03-22T05:51:07.360Z,5.82
2023-03-22T05:53:34.452Z,5.13
2023-03-22T05:56:01.891Z,5.63
2023-03-22T05:58:30.710Z,5.18
2023-03-22T06:01:00.974Z,4.70
2023-03-22T06:03:28.666Z,4.80
2023-03-22T06:05:55.820Z,5.68
2023-03-22T06:08:26.400Z,5.32
2023-03-22T06:10:54.234Z,4.55
2023-03-22T06:13:21.491Z,4.85
2023-03-22T06:15:48.581Z,5.20
2023-03-22T06:18:15.806Z,5.13
2023-03-22T06:20:43.059Z,4.90
2023-03-22T06:23:10.160Z,4.22
2023-03-22T06:25:37.424Z,4.22
2023-03-22T06:28:06.905Z,4.30
2023-03-22T06:30:35.522Z,4.30
2023-03-22T06:33:05.143Z,4.88
2023-03-22T06:35:35.378Z,4.40
2023-03-22T06:38:05.496Z,4.38
2023-03-22T06:40:32.582Z,3.85
2023-03-22T06:43:03.545Z,3.85
2023-03-22T06:48:00.930Z,3.60
2023-03-22T06:50:28.994Z,3.55
2023-03-22T06:52:56.428Z,3.28
2023-03-22T06:55:23.452Z,3.00
2023-03-22T06:57:50.752Z,2.88
2023-03-22T07:00:18.032Z,3.75
2023-03-22T07:02:45.106Z,3.33
2023-03-22T07:05:12.154Z,3.08
2023-03-22T07:07:39.370Z,3.00
2023-03-22T07:10:07.883Z,2.90
2023-03-22T07:12:35.428Z,2.50
2023-03-22T07:15:03.085Z,2.42
2023-03-22T07:17:30.173Z,2.45
2023-03-22T07:19:57.213Z,3.33
2023-03-22T07:22:24.909Z,1.98
2023-03-22T07:24:57.276Z,2.40
2023-03-22T07:27:26.081Z,2.85
2023-03-22T07:29:53.244Z,2.13
2023-03-22T07:32:20.612Z,2.22
2023-03-22T07:34:47.681Z,2.55
2023-03-22T07:37:15.004Z,2.42
2023-03-22T07:39:42.115Z,2.38
2023-03-22T07:42:09.524Z,2.50
2023-03-22T07:44:36.635Z,2.38
2023-03-22T07:47:03.782Z,2.50
2023-03-22T07:49:31.546Z,1.95
2023-03-22T07:51:58.955Z,2.60
2023-03-22T07:54:33.501Z,2.38
2023-03-22T07:57:01.383Z,2.47
2023-03-22T07:59:28.622Z,2.10
2023-03-22T08:01:55.802Z,1.77
2023-03-22T08:04:22.909Z,1.90
2023-03-22T08:06:51.304Z,1.80
2023-03-22T08:09:18.911Z,1.85
2023-03-22T08:11:46.232Z,1.80
2023-03-22T08:14:13.581Z,1.67
2023-03-22T08:16:41.701Z,1.98
2023-03-22T08:19:08.826Z,1.60
2023-03-22T08:21:36.201Z,1.73
2023-03-22T08:24:03.431Z,1.50
2023-03-22T08:26:30.655Z,1.73
2023-03-22T08:28:58.412Z,1.65
2023-03-22T08:31:26.272Z,1.85
2023-03-22T08:33:53.411Z,1.90
2023-03-22T08:36:24.805Z,2.35
2023-03-22T08:38:52.357Z,1.63
2023-03-22T08:41:19.532Z,1.50
2023-03-22T08:43:46.599Z,1.60
2023-03-22T08:46:13.730Z,2.10
2023-03-22T08:48:41.549Z,2.20
2023-03-22T08:51:08.887Z,1.67
2023-03-22T08:53:35.950Z,1.20
2023-03-22T08:56:03.769Z,1.40
2023-03-22T08:58:30.967Z,1.45
2023-03-22T09:00:58.232Z,1.27
2023-03-22T09:03:25.717Z,1.60
2023-03-22T09:05:52.827Z,1.27
2023-03-22T09:08:20.192Z,1.50
2023-03-22T09:10:51.325Z,1.52
2023-03-22T09:13:18.822Z,1.50
2023-03-22T09:15:46.038Z,1.35
2023-03-22T09:18:13.337Z,1.75
2023-03-22T09:20:40.699Z,1.63
2023-03-22T09:23:07.926Z,1.65
2023-03-22T09:25:35.240Z,1.58
2023-03-22T09:28:02.517Z,1.38
2023-03-22T09:30:29.647Z,1.48
2023-03-22T09:32:56.731Z,1.33
2023-03-22T09:35:23.805Z,1.30
2023-03-22T09:37:53.409Z,1.48
2023-03-22T09:40:21.224Z,1.83
2023-03-22T09:42:52.015Z,1.45
2023-03-22T09:45:32.847Z,1.65
2023-03-22T09:48:00.486Z,1.35
2023-03-22T09:50:30.720Z,1.40
2023-03-22T09:52:58.178Z,1.23
2023-03-22T09:55:25.232Z,1.40
2023-03-22T09:57:57.718Z,1.65
2023-03-22T10:00:39.002Z,1.20
2023-03-22T10:03:14.920Z,1.95
2023-03-22T10:05:52.121Z,1.40
2023-03-22T10:08:19.204Z,1.63
2023-03-22T10:10:46.519Z,1.75
2023-03-22T10:13:19.633Z,1.35
2023-03-22T10:15:52.167Z,1.50
2023-03-22T10:18:39.634Z,1.58
2023-03-22T10:21:08.487Z,1.45
2023-03-22T10:23:39.289Z,1.42
2023-03-22T10:26:07.794Z,1.42
2023-03-22T10:28:34.822Z,1.30
2023-03-22T10:31:04.406Z,1.58
2023-03-22T10:33:39.348Z,1.45
2023-03-22T10:36:13.281Z,1.52
2023-03-22T10:38:45.339Z,1.33
2023-03-22T10:41:14.370Z,1.38
2023-03-22T10:43:42.379Z,1.70
2023-03-22T10:46:15.564Z,1.10
2023-03-22T10:48:44.863Z,1.42
2023-03-22T10:51:18.818Z,1.38
2023-03-22T10:53:47.845Z,1.02
2023-03-22T10:56:16.402Z,1.05
2023-03-22T10:58:43.548Z,1.25
2023-03-22T11:01:14.746Z,1.10
2023-03-22T11:03:43.264Z,1.40
2023-03-22T11:06:20.909Z,1.35
2023-03-22T11:08:55.420Z,1.02
2023-03-22T11:11:28.339Z,1.20
2023-03-22T11:14:15.457Z,1.10
2023-03-22T11:16:57.747Z,1.13
2023-03-22T11:19:30.004Z,1.63
2023-03-22T11:21:58.166Z,1.10
2023-03-22T11:24:27.154Z,1.42
2023-03-22T11:27:09.307Z,1.27
2023-03-22T11:32:03.616Z,1.45
2023-03-22T11:34:31.672Z,1.48
2023-03-22T11:37:02.009Z,1.58
2023-03-22T11:39:30.097Z,1.70
2023-03-22T11:41:58.642Z,1.90
2023-03-22T11:44:27.015Z,1.70
2023-03-22T11:46:57.898Z,1.85
2023-03-22T11:49:27.606Z,1.95
2023-03-22T11:51:56.348Z,2.08
2023-03-22T11:54:23.403Z,2.40
2023-03-22T11:56:51.202Z,1.67
2023-03-22T11:59:26.699Z,1.50
2023-03-22T12:02:12.693Z,1.85
2023-03-22T12:04:40.763Z,1.92
2023-03-22T12:07:14.006Z,2.25
2023-03-22T12:09:45.384Z,1.95
2023-03-22T12:12:19.067Z,2.10
2023-03-22T12:14:50.848Z,2.22
2023-03-22T12:17:47.124Z,1.30
2023-03-22T12:20:20.260Z,1.40
2023-03-22T12:22:51.771Z,1.77
2023-03-22T12:25:22.190Z,1.52
2023-03-22T12:27:52.630Z,1.98
2023-03-22T12:30:24.439Z,1.83
2023-03-22T12:35:23.466Z,1.23
2023-03-22T12:40:17.547Z,1.30
2023-03-22T12:42:58.292Z,1.50
2023-03-22T12:45:32.218Z,1.42
2023-03-22T12:48:04.480Z,1.80
2023-03-22T12:50:34.844Z,1.60
2023-03-22T12:53:03.262Z,1.58
2023-03-22T12:55:32.718Z,1.58
2023-03-22T12:58:00.358Z,1.70
2023-03-22T13:00:29.491Z,1.55
2023-03-22T13:03:00.126Z,1.60
2023-03-22T13:05:28.346Z,1.60
2023-03-22T13:07:58.876Z,1.63
2023-03-22T13:10:32.799Z,1.48
2023-03-22T13:13:18.703Z,1.33
2023-03-22T13:16:01.768Z,1.90
2023-03-22T13:18:33.443Z,1.30
2023-03-22T13:23:28.344Z,1.17
2023-03-22T13:25:59.537Z,1.60
2023-03-22T13:28:28.330Z,1.40
2023-03-22T13:30:56.550Z,1.75
2023-03-22T13:33:31.239Z,1.83
2023-03-22T13:36:06.583Z,1.63
2023-03-22T13:38:37.078Z,1.55
2023-03-22T13:41:04.263Z,1.80
2023-03-22T13:43:48.004Z,1.70
2023-03-22T13:46:18.087Z,2.22
2023-03-22T13:48:48.759Z,1.90
2023-03-22T13:51:19.341Z,1.90
2023-03-22T13:53:49.543Z,2.17
2023-03-22T13:56:28.474Z,2.05
2023-03-22T13:58:55.579Z,1.48
2023-03-22T14:01:29.348Z,1.58
2023-03-22T14:03:59.930Z,2.00
2023-03-22T14:06:33.668Z,2.60
2023-03-22T14:09:10.308Z,2.08
2023-03-22T14:11:42.106Z,2.03
2023-03-22T14:14:13.146Z,2.72
2023-03-22T14:16:49.503Z,2.13
2023-03-22T14:19:18.962Z,1.80
